sensor_id;sensor_type;location;lat;lon;timestamp;P1;durP1;ratioP1;P2;durP2;ratioP2
38085;SDS011;23896;50.678;10.924;2022-11-15T00:00:09;5.30;;;2.78;;
38085;SDS011;23896;50.678;10.924;2022-11-15T00:02:36;4.93;;;2.67;;
38085;SDS011;23896;50.678;10.924;2022-11-15T00:05:03;3.75;;;2.85;;
38085;SDS011;23896;50.678;10.924;2022-11-15T00:07:29;5.18;;;3.15;;
38085;SDS011;23896;50.678;10.924;2022-11-15T00:09:55;4.57;;;2.90;;
38085;SDS011;23896;50.678;10.924;2022-11-15T00:12:22;4.85;;;2.60;;
38085;SDS011;23896;50.678;10.924;2022-11-15T00:14:48;5.75;;;3.05;;
38085;SDS011;23896;50.678;10.924;2022-11-15T00:17:18;4.68;;;3.00;;
38085;SDS011;23896;50.678;10.924;2022-11-15T00:19:48;4.07;;;3.03;;
38085;SDS011;23896;50.678;10.924;2022-11-15T00:22:18;5.75;;;2.92;;
38085;SDS011;23896;50.678;10.924;2022-11-15T00:24:52;6.78;;;2.42;;
38085;SDS011;23896;50.678;10.924;2022-11-15T00:27:19;5.25;;;3.15;;
38085;SDS011;23896;50.678;10.924;2022-11-15T00:29:50;3.70;;;2.95;;
38085;SDS011;23896;50.678;10.924;2022-11-15T00:32:20;3.95;;;2.47;;
38085;SDS011;23896;50.678;10.924;2022-11-15T00:34:47;5.63;;;2.42;;
38085;SDS011;23896;50.678;10.924;2022-11-15T00:37:13;4.00;;;2.83;;
38085;SDS011;23896;50.678;10.924;2022-11-15T00:39:42;3.00;;;2.67;;
38085;SDS011;23896;50.678;10.924;2022-11-15T00:42:12;3.97;;;3.00;;
38085;SDS011;23896;50.678;10.924;2022-11-15T00:44:38;4.65;;;2.50;;
38085;SDS011;23896;50.678;10.924;2022-11-15T00:47:05;4.35;;;2.97;;
38085;SDS011;23896;50.678;10.924;2022-11-15T00:49:31;3.80;;;2.53;;
38085;SDS011;23896;50.678;10.924;2022-11-15T00:51:58;3.60;;;2.72;;
38085;SDS011;23896;50.678;10.924;2022-11-15T00:54:24;3.30;;;2.83;;
38085;SDS011;23896;50.678;10.924;2022-11-15T00:56:51;3.03;;;2.72;;
38085;SDS011;23896;50.678;10.924;2022-11-15T00:59:17;5.18;;;3.10;;
38085;SDS011;23896;50.678;10.924;2022-11-15T01:01:44;2.75;;;2.55;;
38085;SDS011;23896;50.678;10.924;2022-11-15T01:04:10;4.97;;;2.67;;
38085;SDS011;23896;50.678;10.924;2022-11-15T01:06:36;4.07;;;2.90;;
38085;SDS011;23896;50.678;10.924;2022-11-15T01:09:03;7.35;;;3.10;;
38085;SDS011;23896;50.678;10.924;2022-11-15T01:11:33;4.55;;;2.63;;
38085;SDS011;23896;50.678;10.924;2022-11-15T01:14:02;2.97;;;2.72;;
38085;SDS011;23896;50.678;10.924;2022-11-15T01:16:29;2.80;;;2.42;;
38085;SDS011;23896;50.678;10.924;2022-11-15T01:18:56;3.97;;;2.80;;
38085;SDS011;23896;50.678;10.924;2022-11-15T01:21:22;4.30;;;2.60;;
38085;SDS011;23896;50.678;10.924;2022-11-15T01:23:52;4.45;;;3.15;;
38085;SDS011;23896;50.678;10.924;2022-11-15T01:26:20;3.20;;;2.50;;
38085;SDS011;23896;50.678;10.924;2022-11-15T01:28:50;5.97;;;2.83;;
38085;SDS011;23896;50.678;10.924;2022-11-15T01:31:22;7.30;;;3.17;;
38085;SDS011;23896;50.678;10.924;2022-11-15T01:36:17;2.72;;;2.42;;
38085;SDS011;23896;50.678;10.924;2022-11-15T01:38:44;2.88;;;2.67;;
38085;SDS011;23896;50.678;10.924;2022-11-15T01:41:16;3.72;;;2.67;;
38085;SDS011;23896;50.678;10.924;2022-11-15T01:43:56;3.20;;;2.85;;
38085;SDS011;23896;50.678;10.924;2022-11-15T02:49:54;4.13;;;3.20;;
38085;SDS011;23896;50.678;10.924;2022-11-15T02:52:21;3.75;;;2.97;;
38085;SDS011;23896;50.678;10.924;2022-11-15T02:55:01;4.47;;;2.92;;
38085;SDS011;23896;50.678;10.924;2022-11-15T02:57:44;3.35;;;3.05;;
38085;SDS011;23896;50.678;10.924;2022-11-15T03:00:19;4.25;;;3.00;;
38085;SDS011;23896;50.678;10.924;2022-11-15T03:02:57;4.32;;;3.20;;
38085;SDS011;23896;50.678;10.924;2022-11-15T03:08:15;6.32;;;3.90;;
38085;SDS011;23896;50.678;10.924;2022-11-15T03:13:40;2.97;;;2.53;;
38085;SDS011;23896;50.678;10.924;2022-11-15T03:25:52;6.03;;;3.08;;
38085;SDS011;23896;50.678;10.924;2022-11-15T03:28:28;4.32;;;2.55;;
38085;SDS011;23896;50.678;10.924;2022-11-15T03:30:57;4.28;;;2.95;;
38085;SDS011;23896;50.678;10.924;2022-11-15T03:33:50;4.95;;;2.58;;
38085;SDS011;23896;50.678;10.924;2022-11-15T03:36:29;4.18;;;3.22;;
38085;SDS011;23896;50.678;10.924;2022-11-15T03:39:05;4.28;;;2.60;;
38085;SDS011;23896;50.678;10.924;2022-11-15T03:41:46;3.60;;;2.53;;
38085;SDS011;23896;50.678;10.924;2022-11-15T03:44:26;5.70;;;2.58;;
38085;SDS011;23896;50.678;10.924;2022-11-15T03:49:33;3.15;;;2.85;;
38085;SDS011;23896;50.678;10.924;2022-11-15T03:52:02;3.58;;;2.83;;
38085;SDS011;23896;50.678;10.924;2022-11-15T03:54:30;6.13;;;3.35;;
38085;SDS011;23896;50.678;10.924;2022-11-15T03:57:00;3.20;;;2.40;;
38085;SDS011;23896;50.678;10.924;2022-11-15T03:59:30;3.53;;;3.08;;
38085;SDS011;23896;50.678;10.924;2022-11-15T04:02:03;3.28;;;2.85;;
38085;SDS011;23896;50.678;10.924;2022-11-15T04:04:32;4.72;;;2.83;;
38085;SDS011;23896;50.678;10.924;2022-11-15T04:07:01;4.10;;;2.78;;
38085;SDS011;23896;50.678;10.924;2022-11-15T04:09:32;4.82;;;2.70;;
38085;SDS011;23896;50.678;10.924;2022-11-15T04:11:58;3.58;;;2.55;;
38085;SDS011;23896;50.678;10.924;2022-11-15T04:14:27;3.38;;;2.40;;
38085;SDS011;23896;50.678;10.924;2022-11-15T05:00:56;3.28;;;2.60;;
38085;SDS011;23896;50.678;10.924;2022-11-15T05:03:25;7.85;;;2.70;;
38085;SDS011;23896;50.678;10.924;2022-11-15T05:06:10;2.25;;;2.03;;
38085;SDS011;23896;50.678;10.924;2022-11-15T05:08:36;6.65;;;2.55;;
38085;SDS011;23896;50.678;10.924;2022-11-15T05:11:03;3.03;;;2.45;;
38085;SDS011;23896;50.678;10.924;2022-11-15T05:13:29;4.78;;;3.25;;
38085;SDS011;23896;50.678;10.924;2022-11-15T05:15:56;3.45;;;2.70;;
38085;SDS011;23896;50.678;10.924;2022-11-15T05:18:22;2.35;;;2.10;;
38085;SDS011;23896;50.678;10.924;2022-11-15T05:20:48;3.30;;;2.50;;
38085;SDS011;23896;50.678;10.924;2022-11-15T05:23:15;4.57;;;3.17;;
38085;SDS011;23896;50.678;10.924;2022-11-15T05:25:41;3.20;;;2.63;;
38085;SDS011;23896;50.678;10.924;2022-11-15T05:28:08;3.17;;;2.88;;
38085;SDS011;23896;50.678;10.924;2022-11-15T05:30:34;4.03;;;2.60;;
38085;SDS011;23896;50.678;10.924;2022-11-15T05:33:00;2.63;;;2.42;;
38085;SDS011;23896;50.678;10.924;2022-11-15T05:35:41;4.88;;;2.90;;
38085;SDS011;23896;50.678;10.924;2022-11-15T05:38:08;4.30;;;2.78;;
38085;SDS011;23896;50.678;10.924;2022-11-15T05:40:35;2.97;;;2.30;;
38085;SDS011;23896;50.678;10.924;2022-11-15T05:43:02;3.15;;;2.58;;
38085;SDS011;23896;50.678;10.924;2022-11-15T05:45:44;2.95;;;2.58;;
38085;SDS011;23896;50.678;10.924;2022-11-15T05:48:20;6.65;;;3.60;;
38085;SDS011;23896;50.678;10.924;2022-11-15T05:50:47;2.80;;;2.60;;
38085;SDS011;23896;50.678;10.924;2022-11-15T05:53:14;3.10;;;2.53;;
38085;SDS011;23896;50.678;10.924;2022-11-15T05:55:45;5.22;;;2.50;;
38085;SDS011;23896;50.678;10.924;2022-11-15T05:58:12;3.30;;;2.75;;
38085;SDS011;23896;50.678;10.924;2022-11-15T06:00:39;4.57;;;2.67;;
38085;SDS011;23896;50.678;10.924;2022-11-15T06:03:11;5.60;;;3.08;;
38085;SDS011;23896;50.678;10.924;2022-11-15T06:05:39;3.75;;;2.65;;
38085;SDS011;23896;50.678;10.924;2022-11-15T06:08:06;3.60;;;2.40;;
38085;SDS011;23896;50.678;10.924;2022-11-15T06:10:32;4.18;;;2.70;;
38085;SDS011;23896;50.678;10.924;2022-11-15T06:13:02;3.03;;;2.78;;
38085;SDS011;23896;50.678;10.924;2022-11-15T06:15:29;4.72;;;3.10;;
38085;SDS011;23896;50.678;10.924;2022-11-15T06:17:56;6.82;;;2.75;;
38085;SDS011;23896;50.678;10.924;2022-11-15T06:20:27;6.50;;;2.70;;
38085;SDS011;23896;50.678;10.924;2022-11-15T06:23:04;3.35;;;2.53;;
38085;SDS011;23896;50.678;10.924;2022-11-15T06:25:31;3.25;;;2.70;;
38085;SDS011;23896;50.678;10.924;2022-11-15T06:27:58;3.35;;;2.63;;
38085;SDS011;23896;50.678;10.924;2022-11-15T06:30:29;4.07;;;3.10;;
38085;SDS011;23896;50.678;10.924;2022-11-15T06:33:04;5.13;;;2.78;;
38085;SDS011;23896;50.678;10.924;2022-11-15T06:35:39;3.88;;;2.78;;
38085;SDS011;23896;50.678;10.924;2022-11-15T06:38:07;2.78;;;2.53;;
38085;SDS011;23896;50.678;10.924;2022-11-15T06:40:34;4.90;;;2.75;;
38085;SDS011;23896;50.678;10.924;2022-11-15T06:43:03;4.20;;;3.08;;
38085;SDS011;23896;50.678;10.924;2022-11-15T06:45:30;2.90;;;2.58;;
38085;SDS011;23896;50.678;10.924;2022-11-15T06:48:01;3.65;;;2.47;;
38085;SDS011;23896;50.678;10.924;2022-11-15T06:50:29;3.55;;;2.65;;
38085;SDS011;23896;50.678;10.924;2022-11-15T06:52:59;3.38;;;2.50;;
38085;SDS011;23896;50.678;10.924;2022-11-15T06:55:28;2.63;;;2.28;;
38085;SDS011;23896;50.678;10.924;2022-11-15T06:57:58;3.42;;;2.65;;
38085;SDS011;23896;50.678;10.924;2022-11-15T07:00:24;3.40;;;2.30;;
38085;SDS011;23896;50.678;10.924;2022-11-15T07:02:51;4.53;;;2.40;;
38085;SDS011;23896;50.678;10.924;2022-11-15T07:05:18;3.60;;;2.40;;
38085;SDS011;23896;50.678;10.924;2022-11-15T07:07:50;4.13;;;2.75;;
38085;SDS011;23896;50.678;10.924;2022-11-15T07:10:17;2.70;;;2.50;;
38085;SDS011;23896;50.678;10.924;2022-11-15T07:12:46;3.50;;;2.85;;
38085;SDS011;23896;50.678;10.924;2022-11-15T07:15:12;2.42;;;2.22;;
38085;SDS011;23896;50.678;10.924;2022-11-15T07:17:39;5.00;;;2.40;;
38085;SDS011;23896;50.678;10.924;2022-11-15T07:20:08;2.95;;;2.28;;
38085;SDS011;23896;50.678;10.924;2022-11-15T07:22:35;2.70;;;2.50;;
38085;SDS011;23896;50.678;10.924;2022-11-15T07:25:01;4.03;;;2.38;;
38085;SDS011;23896;50.678;10.924;2022-11-15T07:27:28;3.33;;;2.28;;
38085;SDS011;23896;50.678;10.924;2022-11-15T07:29:54;4.28;;;2.60;;
38085;SDS011;23896;50.678;10.924;2022-11-15T07:32:21;4.20;;;2.22;;
38085;SDS011;23896;50.678;10.924;2022-11-15T07:34:47;2.33;;;2.05;;
38085;SDS011;23896;50.678;10.924;2022-11-15T07:37:14;2.58;;;2.25;;
38085;SDS011;23896;50.678;10.924;2022-11-15T07:39:42;2.85;;;2.30;;
38085;SDS011;23896;50.678;10.924;2022-11-15T07:42:09;3.67;;;2.50;;
38085;SDS011;23896;50.678;10.924;2022-11-15T07:44:54;2.80;;;2.45;;
38085;SDS011;23896;50.678;10.924;2022-11-15T07:47:23;4.28;;;2.05;;
38085;SDS011;23896;50.678;10.924;2022-11-15T07:49:55;3.22;;;2.03;;
38085;SDS011;23896;50.678;10.924;2022-11-15T07:52:46;2.83;;;2.50;;
38085;SDS011;23896;50.678;10.924;2022-11-15T07:55:19;3.75;;;2.95;;
38085;SDS011;23896;50.678;10.924;2022-11-15T07:57:51;4.45;;;3.65;;
38085;SDS011;23896;50.678;10.924;2022-11-15T08:00:18;2.95;;;2.65;;
38085;SDS011;23896;50.678;10.924;2022-11-15T08:02:48;2.55;;;2.35;;
38085;SDS011;23896;50.678;10.924;2022-11-15T08:05:16;2.75;;;2.13;;
38085;SDS011;23896;50.678;10.924;2022-11-15T08:07:44;5.22;;;3.47;;
38085;SDS011;23896;50.678;10.924;2022-11-15T08:10:11;4.82;;;2.20;;
38085;SDS011;23896;50.678;10.924;2022-11-15T08:12:39;3.22;;;2.72;;
38085;SDS011;23896;50.678;10.924;2022-11-15T08:15:05;4.10;;;3.08;;
38085;SDS011;23896;50.678;10.924;2022-11-15T08:17:33;3.85;;;2.78;;
38085;SDS011;23896;50.678;10.924;2022-11-15T08:20:00;3.47;;;2.60;;
38085;SDS011;23896;50.678;10.924;2022-11-15T08:22:28;3.72;;;2.55;;
38085;SDS011;23896;50.678;10.924;2022-11-15T08:24:56;4.68;;;2.15;;
38085;SDS011;23896;50.678;10.924;2022-11-15T08:27:23;4.72;;;2.22;;
38085;SDS011;23896;50.678;10.924;2022-11-15T08:29:49;3.08;;;2.17;;
38085;SDS011;23896;50.678;10.924;2022-11-15T08:32:16;9.40;;;7.20;;
38085;SDS011;23896;50.678;10.924;2022-11-15T08:34:43;4.95;;;3.20;;
38085;SDS011;23896;50.678;10.924;2022-11-15T08:37:09;3.63;;;2.83;;
38085;SDS011;23896;50.678;10.924;2022-11-15T08:39:37;3.45;;;2.47;;
38085;SDS011;23896;50.678;10.924;2022-11-15T08:42:20;2.60;;;2.30;;
38085;SDS011;23896;50.678;10.924;2022-11-15T08:45:13;2.17;;;1.98;;
38085;SDS011;23896;50.678;10.924;2022-11-15T08:48:03;3.72;;;1.83;;
38085;SDS011;23896;50.678;10.924;2022-11-15T08:50:47;2.03;;;1.80;;
38085;SDS011;23896;50.678;10.924;2022-11-15T08:53:26;2.90;;;2.70;;
38085;SDS011;23896;50.678;10.924;2022-11-15T08:55:55;3.55;;;2.10;;
38085;SDS011;23896;50.678;10.924;2022-11-15T08:58:22;1.98;;;1.88;;
38085;SDS011;23896;50.678;10.924;2022-11-15T09:00:50;2.15;;;1.95;;
38085;SDS011;23896;50.678;10.924;2022-11-15T09:03:33;2.08;;;1.75;;
38085;SDS011;23896;50.678;10.924;2022-11-15T09:12:09;4.88;;;2.95;;
38085;SDS011;23896;50.678;10.924;2022-11-15T09:14:36;3.13;;;2.67;;
38085;SDS011;23896;50.678;10.924;2022-11-15T09:20:06;4.82;;;1.92;;
38085;SDS011;23896;50.678;10.924;2022-11-15T09:22:32;4.63;;;2.20;;
38085;SDS011;23896;50.678;10.924;2022-11-15T09:25:03;2.60;;;2.40;;
38085;SDS011;23896;50.678;10.924;2022-11-15T09:27:43;3.95;;;2.20;;
38085;SDS011;23896;50.678;10.924;2022-11-15T09:30:09;5.60;;;4.30;;
38085;SDS011;23896;50.678;10.924;2022-11-15T09:32:50;13.85;;;7.25;;
38085;SDS011;23896;50.678;10.924;2022-11-15T09:35:38;3.90;;;2.47;;
38085;SDS011;23896;50.678;10.924;2022-11-15T09:38:04;2.53;;;1.40;;
38085;SDS011;23896;50.678;10.924;2022-11-15T09:40:36;2.10;;;1.70;;
38085;SDS011;23896;50.678;10.924;2022-11-15T09:43:10;3.22;;;2.30;;
38085;SDS011;23896;50.678;10.924;2022-11-15T09:46:37;3.95;;;1.70;;
38085;SDS011;23896;50.678;10.924;2022-11-15T09:51:41;2.33;;;1.70;;
38085;SDS011;23896;50.678;10.924;2022-11-15T09:54:21;4.35;;;2.10;;
38085;SDS011;23896;50.678;10.924;2022-11-15T09:56:56;3.38;;;1.77;;
38085;SDS011;23896;50.678;10.924;2022-11-15T10:05:07;5.53;;;2.28;;
38085;SDS011;23896;50.678;10.924;2022-11-15T10:30:17;2.97;;;1.90;;
38085;SDS011;23896;50.678;10.924;2022-11-15T10:32:45;2.38;;;2.00;;
38085;SDS011;23896;50.678;10.924;2022-11-15T10:35:17;3.88;;;2.58;;
38085;SDS011;23896;50.678;10.924;2022-11-15T10:40:33;3.08;;;2.08;;
38085;SDS011;23896;50.678;10.924;2022-11-15T10:45:47;4.10;;;2.65;;
38085;SDS011;23896;50.678;10.924;2022-11-15T10:51:04;2.13;;;1.92;;
38085;SDS011;23896;50.678;10.924;2022-11-15T10:53:57;2.72;;;2.13;;
38085;SDS011;23896;50.678;10.924;2022-11-15T10:56:50;3.35;;;1.85;;
38085;SDS011;23896;50.678;10.924;2022-11-15T11:08:27;4.77;;;2.00;;
38085;SDS011;23896;50.678;10.924;2022-11-15T11:14:07;3.88;;;2.00;;
38085;SDS011;23896;50.678;10.924;2022-11-15T11:16:52;2.85;;;2.13;;
38085;SDS011;23896;50.678;10.924;2022-11-15T11:19:38;1.98;;;1.63;;
38085;SDS011;23896;50.678;10.924;2022-11-15T11:53:12;2.42;;;1.60;;
38085;SDS011;23896;50.678;10.924;2022-11-15T11:58:44;2.35;;;1.98;;
38085;SDS011;23896;50.678;10.924;2022-11-15T12:01:17;2.47;;;2.00;;
38085;SDS011;23896;50.678;10.924;2022-11-15T12:04:11;1.63;;;1.52;;
38085;SDS011;23896;50.678;10.924;2022-11-15T12:15:30;3.08;;;1.63;;
38085;SDS011;23896;50.678;10.924;2022-11-15T12:17:59;5.32;;;1.35;;
38085;SDS011;23896;50.678;10.924;2022-11-15T12:20:34;3.35;;;1.92;;
38085;SDS011;23896;50.678;10.924;2022-11-15T12:23:12;28.63;;;12.82;;
38085;SDS011;23896;50.678;10.924;2022-11-15T12:25:45;17.25;;;7.72;;
38085;SDS011;23896;50.678;10.924;2022-11-15T12:28:19;6.55;;;3.53;;
38085;SDS011;23896;50.678;10.924;2022-11-15T12:30:51;3.03;;;2.33;;
38085;SDS011;23896;50.678;10.924;2022-11-15T12:36:04;6.80;;;2.03;;
38085;SDS011;23896;50.678;10.924;2022-11-15T12:41:18;3.47;;;1.80;;
38085;SDS011;23896;50.678;10.924;2022-11-15T12:43:50;7.60;;;2.63;;
38085;SDS011;23896;50.678;10.924;2022-11-15T12:47:04;1.80;;;1.70;;
38085;SDS011;23896;50.678;10.924;2022-11-15T12:59:50;5.22;;;1.88;;
38085;SDS011;23896;50.678;10.924;2022-11-15T13:05:51;2.03;;;1.52;;
38085;SDS011;23896;50.678;10.924;2022-11-15T13:08:11;3.90;;;1.40;;
38085;SDS011;23896;50.678;10.924;2022-11-15T13:10:55;4.20;;;1.55;;
38085;SDS011;23896;50.678;10.924;2022-11-15T13:16:24;1.83;;;1.73;;
38085;SDS011;23896;50.678;10.924;2022-11-15T13:18:55;2.13;;;1.60;;
38085;SDS011;23896;50.678;10.924;2022-11-15T13:21:29;1.98;;;1.70;;
38085;SDS011;23896;50.678;10.924;2022-11-15T13:24:15;1.75;;;1.60;;
38085;SDS011;23896;50.678;10.924;2022-11-15T13:26:44;1.95;;;1.60;;
38085;SDS011;23896;50.678;10.924;2022-11-15T13:29:19;1.73;;;1.25;;
38085;SDS011;23896;50.678;10.924;2022-11-15T13:31:47;1.85;;;1.55;;
38085;SDS011;23896;50.678;10.924;2022-11-15T13:34:29;5.38;;;1.60;;
38085;SDS011;23896;50.678;10.924;2022-11-15T13:37:27;2.00;;;1.63;;
38085;SDS011;23896;50.678;10.924;2022-11-15T13:40:37;1.65;;;1.55;;
38085;SDS011;23896;50.678;10.924;2022-11-15T13:42:50;3.45;;;1.60;;
38085;SDS011;23896;50.678;10.924;2022-11-15T13:45:21;3.53;;;1.50;;
38085;SDS011;23896;50.678;10.924;2022-11-15T13:47:52;1.75;;;1.42;;
38085;SDS011;23896;50.678;10.924;2022-11-15T13:50:20;3.08;;;2.30;;
38085;SDS011;23896;50.678;10.924;2022-11-15T13:52:53;2.75;;;1.50;;
38085;SDS011;23896;50.678;10.924;2022-11-15T13:55:23;1.52;;;1.42;;
38085;SDS011;23896;50.678;10.924;2022-11-15T13:57:56;2.38;;;1.35;;
38085;SDS011;23896;50.678;10.924;2022-11-15T14:00:30;1.98;;;1.73;;
38085;SDS011;23896;50.678;10.924;2022-11-15T14:05:58;3.65;;;2.30;;
38085;SDS011;23896;50.678;10.924;2022-11-15T14:08:39;2.22;;;1.67;;
38085;SDS011;23896;50.678;10.924;2022-11-15T14:11:10;2.58;;;1.88;;
38085;SDS011;23896;50.678;10.924;2022-11-15T14:13:57;2.38;;;1.70;;
38085;SDS011;23896;50.678;10.924;2022-11-15T14:16:33;1.52;;;1.40;;
38085;SDS011;23896;50.678;10.924;2022-11-15T14:19:02;1.92;;;1.52;;
38085;SDS011;23896;50.678;10.924;2022-11-15T14:21:33;2.42;;;2.22;;
38085;SDS011;23896;50.678;10.924;2022-11-15T14:24:19;1.98;;;1.75;;
38085;SDS011;23896;50.678;10.924;2022-11-15T14:26:48;2.15;;;1.95;;
38085;SDS011;23896;50.678;10.924;2022-11-15T14:29:22;2.45;;;1.88;;
38085;SDS011;23896;50.678;10.924;2022-11-15T14:31:50;1.85;;;1.50;;
38085;SDS011;23896;50.678;10.924;2022-11-15T14:34:21;6.22;;;2.33;;
38085;SDS011;23896;50.678;10.924;2022-11-15T14:36:49;2.15;;;1.98;;
38085;SDS011;23896;50.678;10.924;2022-11-15T14:39:18;1.65;;;1.50;;
38085;SDS011;23896;50.678;10.924;2022-11-15T14:41:56;2.30;;;1.70;;
38085;SDS011;23896;50.678;10.924;2022-11-15T14:44:26;2.05;;;1.77;;
38085;SDS011;23896;50.678;10.924;2022-11-15T14:46:54;2.42;;;2.22;;
38085;SDS011;23896;50.678;10.924;2022-11-15T14:49:21;2.20;;;2.00;;
38085;SDS011;23896;50.678;10.924;2022-11-15T14:51:59;2.23;;;1.87;;
38085;SDS011;23896;50.678;10.924;2022-11-15T14:54:26;2.60;;;2.17;;
38085;SDS011;23896;50.678;10.924;2022-11-15T14:56:53;2.85;;;1.92;;
38085;SDS011;23896;50.678;10.924;2022-11-15T14:59:21;1.65;;;1.55;;
38085;SDS011;23896;50.678;10.924;2022-11-15T15:01:47;2.38;;;1.83;;
38085;SDS011;23896;50.678;10.924;2022-11-15T15:04:16;2.03;;;1.88;;
38085;SDS011;23896;50.678;10.924;2022-11-15T15:06:44;2.00;;;1.77;;
38085;SDS011;23896;50.678;10.924;2022-11-15T15:09:12;3.08;;;2.22;;
38085;SDS011;23896;50.678;10.924;2022-11-15T15:11:39;4.45;;;1.95;;
38085;SDS011;23896;50.678;10.924;2022-11-15T15:14:07;5.18;;;1.80;;
38085;SDS011;23896;50.678;10.924;2022-11-15T15:16:35;2.22;;;1.83;;
38085;SDS011;23896;50.678;10.924;2022-11-15T15:19:04;1.85;;;1.73;;
38085;SDS011;23896;50.678;10.924;2022-11-15T15:21:32;4.32;;;2.05;;
38085;SDS011;23896;50.678;10.924;2022-11-15T15:24:00;1.98;;;1.85;;
38085;SDS011;23896;50.678;10.924;2022-11-15T15:26:30;2.22;;;2.03;;
38085;SDS011;23896;50.678;10.924;2022-11-15T15:29:05;2.63;;;2.17;;
38085;SDS011;23896;50.678;10.924;2022-11-15T15:31:33;3.42;;;2.13;;
38085;SDS011;23896;50.678;10.924;2022-11-15T15:34:01;2.58;;;2.38;;
38085;SDS011;23896;50.678;10.924;2022-11-15T15:36:28;2.50;;;2.30;;
38085;SDS011;23896;50.678;10.924;2022-11-15T15:38:56;2.63;;;2.42;;
38085;SDS011;23896;50.678;10.924;2022-11-15T15:41:24;2.55;;;2.35;;
38085;SDS011;23896;50.678;10.924;2022-11-15T15:43:53;3.15;;;2.08;;
38085;SDS011;23896;50.678;10.924;2022-11-15T15:46:20;2.28;;;2.08;;
38085;SDS011;23896;50.678;10.924;2022-11-15T15:48:48;1.85;;;1.60;;
38085;SDS011;23896;50.678;10.924;2022-11-15T15:51:16;3.63;;;2.60;;
38085;SDS011;23896;50.678;10.924;2022-11-15T15:53:44;1.83;;;1.58;;
38085;SDS011;23896;50.678;10.924;2022-11-15T15:56:10;3.40;;;1.75;;
38085;SDS011;23896;50.678;10.924;2022-11-15T15:58:38;3.78;;;1.73;;
38085;SDS011;23896;50.678;10.924;2022-11-15T16:01:10;4.00;;;2.25;;
38085;SDS011;23896;50.678;10.924;2022-11-15T16:03:41;3.70;;;1.98;;
38085;SDS011;23896;50.678;10.924;2022-11-15T16:09:18;2.40;;;2.20;;
38085;SDS011;23896;50.678;10.924;2022-11-15T16:12:08;3.67;;;1.80;;
38085;SDS011;23896;50.678;10.924;2022-11-15T16:14:35;2.80;;;2.20;;
38085;SDS011;23896;50.678;10.924;2022-11-15T16:17:01;6.82;;;1.98;;
38085;SDS011;23896;50.678;10.924;2022-11-15T16:19:29;3.72;;;2.83;;
38085;SDS011;23896;50.678;10.924;2022-11-15T16:21:58;9.27;;;6.72;;
38085;SDS011;23896;50.678;10.924;2022-11-15T16:24:24;9.23;;;5.90;;
38085;SDS011;23896;50.678;10.924;2022-11-15T16:26:51;10.35;;;7.70;;
38085;SDS011;23896;50.678;10.924;2022-11-15T16:29:19;12.18;;;8.40;;
38085;SDS011;23896;50.678;10.924;2022-11-15T16:31:46;11.85;;;8.43;;
38085;SDS011;23896;50.678;10.924;2022-11-15T16:34:12;12.45;;;6.30;;
38085;SDS011;23896;50.678;10.924;2022-11-15T16:36:42;7.45;;;5.35;;
38085;SDS011;23896;50.678;10.924;2022-11-15T16:39:12;8.82;;;7.07;;
38085;SDS011;23896;50.678;10.924;2022-11-15T16:41:44;61.92;;;40.58;;
38085;SDS011;23896;50.678;10.924;2022-11-15T16:44:15;22.52;;;15.63;;
38085;SDS011;23896;50.678;10.924;2022-11-15T16:46:44;6.15;;;5.18;;
38085;SDS011;23896;50.678;10.924;2022-11-15T16:49:18;15.43;;;12.07;;
38085;SDS011;23896;50.678;10.924;2022-11-15T16:51:52;10.80;;;7.97;;
38085;SDS011;23896;50.678;10.924;2022-11-15T16:54:20;7.13;;;5.47;;
38085;SDS011;23896;50.678;10.924;2022-11-15T16:56:47;3.60;;;3.30;;
38085;SDS011;23896;50.678;10.924;2022-11-15T16:59:16;4.10;;;3.70;;
38085;SDS011;23896;50.678;10.924;2022-11-15T17:01:46;2.92;;;2.72;;
38085;SDS011;23896;50.678;10.924;2022-11-15T17:04:18;4.35;;;2.92;;
38085;SDS011;23896;50.678;10.924;2022-11-15T17:06:48;6.40;;;3.45;;
38085;SDS011;23896;50.678;10.924;2022-11-15T17:09:20;6.13;;;3.10;;
38085;SDS011;23896;50.678;10.924;2022-11-15T17:11:51;3.47;;;2.90;;
38085;SDS011;23896;50.678;10.924;2022-11-15T17:14:19;3.38;;;2.83;;
38085;SDS011;23896;50.678;10.924;2022-11-15T17:16:47;4.35;;;3.70;;
38085;SDS011;23896;50.678;10.924;2022-11-15T17:19:18;4.18;;;3.88;;
38085;SDS011;23896;50.678;10.924;2022-11-15T17:21:45;3.22;;;2.85;;
38085;SDS011;23896;50.678;10.924;2022-11-15T17:24:15;2.92;;;2.70;;
38085;SDS011;23896;50.678;10.924;2022-11-15T17:26:44;8.30;;;3.60;;
38085;SDS011;23896;50.678;10.924;2022-11-15T17:29:15;6.95;;;4.22;;
38085;SDS011;23896;50.678;10.924;2022-11-15T17:31:41;5.15;;;3.63;;
38085;SDS011;23896;50.678;10.924;2022-11-15T17:34:14;4.97;;;4.43;;
38085;SDS011;23896;50.678;10.924;2022-11-15T17:36:40;5.63;;;4.55;;
38085;SDS011;23896;50.678;10.924;2022-11-15T17:39:09;4.10;;;3.45;;
38085;SDS011;23896;50.678;10.924;2022-11-15T17:41:35;5.20;;;4.15;;
38085;SDS011;23896;50.678;10.924;2022-11-15T17:44:03;6.53;;;4.50;;
38085;SDS011;23896;50.678;10.924;2022-11-15T17:46:31;6.72;;;4.93;;
38085;SDS011;23896;50.678;10.924;2022-11-15T17:48:59;7.03;;;5.07;;
38085;SDS011;23896;50.678;10.924;2022-11-15T17:51:26;4.75;;;4.22;;
38085;SDS011;23896;50.678;10.924;2022-11-15T17:53:54;6.00;;;4.93;;
38085;SDS011;23896;50.678;10.924;2022-11-15T17:56:24;8.32;;;5.05;;
38085;SDS011;23896;50.678;10.924;2022-11-15T17:58:56;7.22;;;4.88;;
38085;SDS011;23896;50.678;10.924;2022-11-15T18:01:28;7.93;;;6.18;;
38085;SDS011;23896;50.678;10.924;2022-11-15T18:03:56;7.97;;;6.50;;
38085;SDS011;23896;50.678;10.924;2022-11-15T18:06:26;8.20;;;6.68;;
38085;SDS011;23896;50.678;10.924;2022-11-15T18:08:56;7.03;;;6.18;;
38085;SDS011;23896;50.678;10.924;2022-11-15T18:11:24;10.13;;;8.43;;
38085;SDS011;23896;50.678;10.924;2022-11-15T18:13:59;13.60;;;10.15;;
38085;SDS011;23896;50.678;10.924;2022-11-15T18:16:28;12.57;;;8.60;;
38085;SDS011;23896;50.678;10.924;2022-11-15T18:19:00;9.98;;;7.70;;
38085;SDS011;23896;50.678;10.924;2022-11-15T18:21:31;10.10;;;7.32;;
38085;SDS011;23896;50.678;10.924;2022-11-15T18:24:33;10.00;;;6.80;;
38085;SDS011;23896;50.678;10.924;2022-11-15T18:27:02;8.65;;;6.68;;
38085;SDS011;23896;50.678;10.924;2022-11-15T18:29:29;9.10;;;6.28;;
38085;SDS011;23896;50.678;10.924;2022-11-15T18:31:59;9.02;;;6.28;;
38085;SDS011;23896;50.678;10.924;2022-11-15T18:34:30;10.57;;;5.85;;
38085;SDS011;23896;50.678;10.924;2022-11-15T18:37:02;12.38;;;8.65;;
38085;SDS011;23896;50.678;10.924;2022-11-15T18:39:29;13.23;;;7.22;;
38085;SDS011;23896;50.678;10.924;2022-11-15T18:42:01;11.80;;;8.43;;
38085;SDS011;23896;50.678;10.924;2022-11-15T18:44:37;41.88;;;31.98;;
38085;SDS011;23896;50.678;10.924;2022-11-15T18:47:04;36.83;;;20.95;;
38085;SDS011;23896;50.678;10.924;2022-11-15T18:49:30;21.63;;;14.98;;
38085;SDS011;23896;50.678;10.924;2022-11-15T18:52:00;17.85;;;12.55;;
38085;SDS011;23896;50.678;10.924;2022-11-15T18:54:31;11.88;;;7.93;;
38085;SDS011;23896;50.678;10.924;2022-11-15T18:56:59;11.88;;;9.25;;
38085;SDS011;23896;50.678;10.924;2022-11-15T18:59:28;10.52;;;7.00;;
38085;SDS011;23896;50.678;10.924;2022-11-15T19:01:56;8.75;;;6.82;;
38085;SDS011;23896;50.678;10.924;2022-11-15T19:04:24;11.95;;;7.60;;
38085;SDS011;23896;50.678;10.924;2022-11-15T19:06:50;9.38;;;7.85;;
38085;SDS011;23896;50.678;10.924;2022-11-15T19:09:17;9.32;;;6.75;;
38085;SDS011;23896;50.678;10.924;2022-11-15T19:11:45;12.77;;;8.07;;
38085;SDS011;23896;50.678;10.924;2022-11-15T19:14:14;8.30;;;6.88;;